sensor_id;sensor_type;location;lat;lon;timestamp;P1;durP1;ratioP1;P2;durP2;ratioP2
2624;SDS011;1322;53.256;10.386;2023-04-15T00:01:29;13.13;;;9.47;;
2624;SDS011;1322;53.256;10.386;2023-04-15T00:03:58;12.93;;;7.97;;
2624;SDS011;1322;53.256;10.386;2023-04-15T00:06:24;9.20;;;7.63;;
2624;SDS011;1322;53.256;10.386;2023-04-15T00:08:50;9.40;;;6.73;;
2624;SDS011;1322;53.256;10.386;2023-04-15T00:11:16;8.53;;;6.40;;
2624;SDS011;1322;53.256;10.386;2023-04-15T00:13:42;8.60;;;5.50;;
2624;SDS011;1322;53.256;10.386;2023-04-15T00:16:08;7.40;;;5.30;;
2624;SDS011;1322;53.256;10.386;2023-04-15T00:18:34;10.07;;;5.23;;
2624;SDS011;1322;53.256;10.386;2023-04-15T00:21:01;7.60;;;5.30;;
2624;SDS011;1322;53.256;10.386;2023-04-15T00:23:30;7.07;;;5.13;;
2624;SDS011;1322;53.256;10.386;2023-04-15T00:25:56;8.53;;;4.40;;
2624;SDS011;1322;53.256;10.386;2023-04-15T00:28:21;5.90;;;4.30;;
2624;SDS011;1322;53.256;10.386;2023-04-15T00:30:47;6.97;;;5.10;;
2624;SDS011;1322;53.256;10.386;2023-04-15T00:33:13;8.83;;;5.23;;
2624;SDS011;1322;53.256;10.386;2023-04-15T00:35:40;8.43;;;5.03;;
2624;SDS011;1322;53.256;10.386;2023-04-15T00:38:06;7.60;;;4.70;;
2624;SDS011;1322;53.256;10.386;2023-04-15T00:40:32;7.27;;;5.60;;
2624;SDS011;1322;53.256;10.386;2023-04-15T00:42:59;7.27;;;5.47;;
2624;SDS011;1322;53.256;10.386;2023-04-15T00:45:25;6.83;;;5.07;;
2624;SDS011;1322;53.256;10.386;2023-04-15T00:47:52;6.03;;;5.03;;
2624;SDS011;1322;53.256;10.386;2023-04-15T00:50:18;5.97;;;5.37;;
2624;SDS011;1322;53.256;10.386;2023-04-15T00:52:44;8.90;;;6.63;;
2624;SDS011;1322;53.256;10.386;2023-04-15T00:55:09;6.40;;;4.90;;
2624;SDS011;1322;53.256;10.386;2023-04-15T00:57:35;7.13;;;5.50;;
2624;SDS011;1322;53.256;10.386;2023-04-15T01:00:02;5.90;;;4.90;;
2624;SDS011;1322;53.256;10.386;2023-04-15T01:02:29;7.87;;;5.70;;
2624;SDS011;1322;53.256;10.386;2023-04-15T01:04:56;7.10;;;5.77;;
2624;SDS011;1322;53.256;10.386;2023-04-15T01:07:22;13.13;;;6.33;;
2624;SDS011;1322;53.256;10.386;2023-04-15T01:09:47;6.80;;;5.80;;
2624;SDS011;1322;53.256;10.386;2023-04-15T01:12:13;6.73;;;5.40;;
2624;SDS011;1322;53.256;10.386;2023-04-15T01:14:40;7.93;;;4.97;;
2624;SDS011;1322;53.256;10.386;2023-04-15T01:17:06;7.47;;;5.50;;
2624;SDS011;1322;53.256;10.386;2023-04-15T01:19:32;6.50;;;5.37;;
2624;SDS011;1322;53.256;10.386;2023-04-15T01:22:03;8.77;;;6.00;;
2624;SDS011;1322;53.256;10.386;2023-04-15T01:24:30;8.23;;;5.23;;
2624;SDS011;1322;53.256;10.386;2023-04-15T01:26:59;6.83;;;4.93;;
2624;SDS011;1322;53.256;10.386;2023-04-15T01:29:25;6.80;;;4.70;;
2624;SDS011;1322;53.256;10.386;2023-04-15T01:31:51;7.27;;;5.33;;
2624;SDS011;1322;53.256;10.386;2023-04-15T01:34:19;6.83;;;5.20;;
2624;SDS011;1322;53.256;10.386;2023-04-15T01:36:45;9.83;;;5.97;;
2624;SDS011;1322;53.256;10.386;2023-04-15T01:39:11;7.70;;;5.90;;
2624;SDS011;1322;53.256;10.386;2023-04-15T01:41:37;6.07;;;4.90;;
2624;SDS011;1322;53.256;10.386;2023-04-15T01:44:04;8.10;;;5.07;;
2624;SDS011;1322;53.256;10.386;2023-04-15T01:46:33;7.30;;;5.03;;
2624;SDS011;1322;53.256;10.386;2023-04-15T01:48:59;8.07;;;4.93;;
2624;SDS011;1322;53.256;10.386;2023-04-15T01:51:25;7.33;;;5.40;;
2624;SDS011;1322;53.256;10.386;2023-04-15T01:53:51;8.60;;;6.20;;
2624;SDS011;1322;53.256;10.386;2023-04-15T01:56:17;8.33;;;6.17;;
2624;SDS011;1322;53.256;10.386;2023-04-15T01:58:43;6.33;;;4.70;;
2624;SDS011;1322;53.256;10.386;2023-04-15T02:01:09;5.83;;;4.60;;
2624;SDS011;1322;53.256;10.386;2023-04-15T02:03:35;7.67;;;5.63;;
2624;SDS011;1322;53.256;10.386;2023-04-15T02:06:01;8.63;;;5.30;;
2624;SDS011;1322;53.256;10.386;2023-04-15T02:08:28;8.93;;;5.73;;
2624;SDS011;1322;53.256;10.386;2023-04-15T02:10:54;7.20;;;5.27;;
2624;SDS011;1322;53.256;10.386;2023-04-15T02:13:20;10.90;;;6.33;;
2624;SDS011;1322;53.256;10.386;2023-04-15T02:15:47;9.03;;;5.63;;
2624;SDS011;1322;53.256;10.386;2023-04-15T02:18:14;8.23;;;6.03;;
2624;SDS011;1322;53.256;10.386;2023-04-15T02:20:40;15.93;;;6.33;;
2624;SDS011;1322;53.256;10.386;2023-04-15T02:23:07;9.53;;;6.20;;
2624;SDS011;1322;53.256;10.386;2023-04-15T02:25:33;8.83;;;6.33;;
2624;SDS011;1322;53.256;10.386;2023-04-15T02:27:59;8.30;;;6.17;;
2624;SDS011;1322;53.256;10.386;2023-04-15T02:30:24;8.10;;;5.80;;
2624;SDS011;1322;53.256;10.386;2023-04-15T02:32:51;8.90;;;6.27;;
2624;SDS011;1322;53.256;10.386;2023-04-15T02:35:16;8.97;;;5.93;;
2624;SDS011;1322;53.256;10.386;2023-04-15T02:37:45;7.93;;;6.50;;
2624;SDS011;1322;53.256;10.386;2023-04-15T02:40:11;7.67;;;5.73;;
2624;SDS011;1322;53.256;10.386;2023-04-15T02:42:38;8.90;;;6.37;;
2624;SDS011;1322;53.256;10.386;2023-04-15T02:45:04;8.57;;;6.20;;
2624;SDS011;1322;53.256;10.386;2023-04-15T02:47:32;11.70;;;7.10;;
2624;SDS011;1322;53.256;10.386;2023-04-15T02:49:58;11.43;;;7.07;;
2624;SDS011;1322;53.256;10.386;2023-04-15T02:52:26;9.57;;;6.40;;
2624;SDS011;1322;53.256;10.386;2023-04-15T02:54:52;13.37;;;6.63;;
2624;SDS011;1322;53.256;10.386;2023-04-15T02:57:21;10.77;;;6.87;;
2624;SDS011;1322;53.256;10.386;2023-04-15T02:59:47;12.90;;;8.40;;
2624;SDS011;1322;53.256;10.386;2023-04-15T03:02:12;8.70;;;6.60;;
2624;SDS011;1322;53.256;10.386;2023-04-15T03:04:38;12.10;;;8.63;;
2624;SDS011;1322;53.256;10.386;2023-04-15T03:07:04;8.63;;;6.40;;
2624;SDS011;1322;53.256;10.386;2023-04-15T03:09:30;11.83;;;7.53;;
2624;SDS011;1322;53.256;10.386;2023-04-15T03:11:56;8.47;;;6.50;;
2624;SDS011;1322;53.256;10.386;2023-04-15T03:14:22;11.10;;;7.00;;
2624;SDS011;1322;53.256;10.386;2023-04-15T03:16:47;10.70;;;8.20;;
2624;SDS011;1322;53.256;10.386;2023-04-15T03:19:14;9.17;;;7.30;;
2624;SDS011;1322;53.256;10.386;2023-04-15T03:21:43;11.80;;;7.53;;
2624;SDS011;1322;53.256;10.386;2023-04-15T03:24:08;10.00;;;7.33;;
2624;SDS011;1322;53.256;10.386;2023-04-15T03:26:34;11.23;;;8.10;;
2624;SDS011;1322;53.256;10.386;2023-04-15T03:29:00;11.63;;;8.03;;
2624;SDS011;1322;53.256;10.386;2023-04-15T03:31:26;17.13;;;9.63;;
2624;SDS011;1322;53.256;10.386;2023-04-15T03:33:52;15.37;;;8.43;;
2624;SDS011;1322;53.256;10.386;2023-04-15T03:36:17;14.53;;;9.40;;
2624;SDS011;1322;53.256;10.386;2023-04-15T03:38:43;12.07;;;9.00;;
2624;SDS011;1322;53.256;10.386;2023-04-15T03:41:08;16.40;;;9.90;;
2624;SDS011;1322;53.256;10.386;2023-04-15T03:43:34;10.23;;;8.40;;
2624;SDS011;1322;53.256;10.386;2023-04-15T03:46:00;16.50;;;8.90;;
2624;SDS011;1322;53.256;10.386;2023-04-15T03:48:26;14.07;;;9.30;;
2624;SDS011;1322;53.256;10.386;2023-04-15T03:50:52;19.00;;;10.90;;
2624;SDS011;1322;53.256;10.386;2023-04-15T03:53:18;16.37;;;10.07;;
2624;SDS011;1322;53.256;10.386;2023-04-15T03:55:45;14.70;;;10.03;;
2624;SDS011;1322;53.256;10.386;2023-04-15T03:58:11;12.90;;;8.90;;
2624;SDS011;1322;53.256;10.386;2023-04-15T04:00:37;14.40;;;9.03;;
2624;SDS011;1322;53.256;10.386;2023-04-15T04:03:03;15.37;;;9.60;;
2624;SDS011;1322;53.256;10.386;2023-04-15T04:05:29;17.13;;;9.60;;
2624;SDS011;1322;53.256;10.386;2023-04-15T04:07:55;15.37;;;9.20;;
2624;SDS011;1322;53.256;10.386;2023-04-15T04:10:21;17.50;;;11.40;;
2624;SDS011;1322;53.256;10.386;2023-04-15T04:12:47;13.23;;;9.90;;
2624;SDS011;1322;53.256;10.386;2023-04-15T04:15:12;15.47;;;9.37;;
2624;SDS011;1322;53.256;10.386;2023-04-15T04:17:38;22.10;;;11.07;;
2624;SDS011;1322;53.256;10.386;2023-04-15T04:20:04;17.83;;;10.53;;
2624;SDS011;1322;53.256;10.386;2023-04-15T04:22:30;19.13;;;11.33;;
2624;SDS011;1322;53.256;10.386;2023-04-15T04:24:56;19.07;;;11.03;;
2624;SDS011;1322;53.256;10.386;2023-04-15T04:27:23;19.70;;;11.33;;
2624;SDS011;1322;53.256;10.386;2023-04-15T04:29:49;17.97;;;11.00;;
2624;SDS011;1322;53.256;10.386;2023-04-15T04:32:15;20.60;;;10.17;;
2624;SDS011;1322;53.256;10.386;2023-04-15T04:34:41;17.80;;;10.67;;
2624;SDS011;1322;53.256;10.386;2023-04-15T04:37:09;17.10;;;11.00;;
2624;SDS011;1322;53.256;10.386;2023-04-15T04:39:35;19.70;;;11.63;;
2624;SDS011;1322;53.256;10.386;2023-04-15T04:42:00;22.40;;;11.50;;
2624;SDS011;1322;53.256;10.386;2023-04-15T04:44:26;18.53;;;11.30;;
2624;SDS011;1322;53.256;10.386;2023-04-15T04:46:52;18.17;;;10.57;;
2624;SDS011;1322;53.256;10.386;2023-04-15T04:49:18;19.27;;;11.07;;
2624;SDS011;1322;53.256;10.386;2023-04-15T04:51:43;17.63;;;10.70;;
2624;SDS011;1322;53.256;10.386;2023-04-15T04:54:10;21.63;;;12.57;;
2624;SDS011;1322;53.256;10.386;2023-04-15T04:56:36;20.83;;;12.60;;
2624;SDS011;1322;53.256;10.386;2023-04-15T04:59:03;22.80;;;10.87;;
2624;SDS011;1322;53.256;10.386;2023-04-15T05:01:29;23.17;;;12.53;;
2624;SDS011;1322;53.256;10.386;2023-04-15T05:03:55;18.57;;;10.33;;
2624;SDS011;1322;53.256;10.386;2023-04-15T05:06:21;17.80;;;11.87;;
2624;SDS011;1322;53.256;10.386;2023-04-15T05:08:46;17.40;;;10.27;;
2624;SDS011;1322;53.256;10.386;2023-04-15T05:11:12;19.00;;;9.50;;
2624;SDS011;1322;53.256;10.386;2023-04-15T05:13:38;19.00;;;11.67;;
2624;SDS011;1322;53.256;10.386;2023-04-15T05:16:04;25.10;;;13.67;;
2624;SDS011;1322;53.256;10.386;2023-04-15T05:18:30;22.97;;;12.43;;
2624;SDS011;1322;53.256;10.386;2023-04-15T05:20:56;18.63;;;12.13;;
2624;SDS011;1322;53.256;10.386;2023-04-15T05:23:22;23.47;;;12.90;;
2624;SDS011;1322;53.256;10.386;2023-04-15T05:25:47;23.10;;;13.30;;
2624;SDS011;1322;53.256;10.386;2023-04-15T05:28:13;17.80;;;10.87;;
2624;SDS011;1322;53.256;10.386;2023-04-15T05:30:39;19.70;;;12.80;;
2624;SDS011;1322;53.256;10.386;2023-04-15T05:33:05;24.97;;;12.60;;
2624;SDS011;1322;53.256;10.386;2023-04-15T05:35:31;24.40;;;12.43;;
2624;SDS011;1322;53.256;10.386;2023-04-15T05:37:57;25.50;;;13.60;;
2624;SDS011;1322;53.256;10.386;2023-04-15T05:40:23;26.37;;;13.20;;
2624;SDS011;1322;53.256;10.386;2023-04-15T05:42:48;27.50;;;12.73;;
2624;SDS011;1322;53.256;10.386;2023-04-15T05:45:15;24.57;;;14.23;;
2624;SDS011;1322;53.256;10.386;2023-04-15T05:47:41;26.73;;;13.87;;
2624;SDS011;1322;53.256;10.386;2023-04-15T05:50:07;30.00;;;14.60;;
2624;SDS011;1322;53.256;10.386;2023-04-15T05:52:33;29.37;;;14.50;;
2624;SDS011;1322;53.256;10.386;2023-04-15T05:54:59;24.50;;;13.53;;
2624;SDS011;1322;53.256;10.386;2023-04-15T05:57:24;21.57;;;12.43;;
2624;SDS011;1322;53.256;10.386;2023-04-15T05:59:50;30.37;;;15.43;;
2624;SDS011;1322;53.256;10.386;2023-04-15T06:02:17;26.63;;;14.40;;
2624;SDS011;1322;53.256;10.386;2023-04-15T06:04:42;27.67;;;16.20;;
2624;SDS011;1322;53.256;10.386;2023-04-15T06:07:08;35.43;;;16.30;;
2624;SDS011;1322;53.256;10.386;2023-04-15T06:09:34;36.40;;;16.67;;
2624;SDS011;1322;53.256;10.386;2023-04-15T06:12:00;40.10;;;18.10;;
2624;SDS011;1322;53.256;10.386;2023-04-15T06:14:26;35.03;;;18.53;;
2624;SDS011;1322;53.256;10.386;2023-04-15T06:16:51;37.80;;;17.87;;
2624;SDS011;1322;53.256;10.386;2023-04-15T06:19:17;42.83;;;20.30;;
2624;SDS011;1322;53.256;10.386;2023-04-15T06:21:43;41.00;;;20.70;;
2624;SDS011;1322;53.256;10.386;2023-04-15T06:24:10;41.07;;;19.27;;
2624;SDS011;1322;53.256;10.386;2023-04-15T06:26:36;35.53;;;17.97;;
2624;SDS011;1322;53.256;10.386;2023-04-15T06:29:01;36.17;;;18.27;;
2624;SDS011;1322;53.256;10.386;2023-04-15T06:31:27;39.93;;;19.73;;
2624;SDS011;1322;53.256;10.386;2023-04-15T06:33:53;35.80;;;18.10;;
2624;SDS011;1322;53.256;10.386;2023-04-15T06:36:19;42.17;;;19.50;;
2624;SDS011;1322;53.256;10.386;2023-04-15T06:38:45;41.00;;;21.27;;
2624;SDS011;1322;53.256;10.386;2023-04-15T06:41:11;40.80;;;21.43;;
2624;SDS011;1322;53.256;10.386;2023-04-15T06:43:37;38.33;;;20.97;;
2624;SDS011;1322;53.256;10.386;2023-04-15T06:46:03;35.03;;;19.93;;
2624;SDS011;1322;53.256;10.386;2023-04-15T06:48:29;39.80;;;21.70;;
2624;SDS011;1322;53.256;10.386;2023-04-15T06:50:55;38.43;;;21.70;;
2624;SDS011;1322;53.256;10.386;2023-04-15T06:53:22;42.20;;;20.90;;
2624;SDS011;1322;53.256;10.386;2023-04-15T06:55:49;42.13;;;23.50;;
2624;SDS011;1322;53.256;10.386;2023-04-15T06:58:15;40.50;;;23.40;;
2624;SDS011;1322;53.256;10.386;2023-04-15T07:00:41;42.20;;;22.47;;
2624;SDS011;1322;53.256;10.386;2023-04-15T07:03:06;37.40;;;22.60;;
2624;SDS011;1322;53.256;10.386;2023-04-15T07:05:35;40.23;;;24.03;;
2624;SDS011;1322;53.256;10.386;2023-04-15T07:08:00;41.17;;;23.50;;
2624;SDS011;1322;53.256;10.386;2023-04-15T07:10:26;33.20;;;21.30;;
2624;SDS011;1322;53.256;10.386;2023-04-15T07:12:51;44.67;;;25.37;;
2624;SDS011;1322;53.256;10.386;2023-04-15T07:15:17;47.13;;;24.13;;
2624;SDS011;1322;53.256;10.386;2023-04-15T07:17:43;43.13;;;24.00;;
2624;SDS011;1322;53.256;10.386;2023-04-15T07:20:09;46.87;;;25.07;;
2624;SDS011;1322;53.256;10.386;2023-04-15T07:22:35;51.80;;;26.30;;
2624;SDS011;1322;53.256;10.386;2023-04-15T07:25:01;50.80;;;26.70;;
2624;SDS011;1322;53.256;10.386;2023-04-15T07:27:26;44.23;;;24.37;;
2624;SDS011;1322;53.256;10.386;2023-04-15T07:29:52;48.07;;;25.80;;
2624;SDS011;1322;53.256;10.386;2023-04-15T07:32:20;51.03;;;27.07;;
2624;SDS011;1322;53.256;10.386;2023-04-15T07:34:45;41.23;;;25.67;;
2624;SDS011;1322;53.256;10.386;2023-04-15T07:37:11;46.00;;;25.33;;
2624;SDS011;1322;53.256;10.386;2023-04-15T07:39:37;47.20;;;26.23;;
2624;SDS011;1322;53.256;10.386;2023-04-15T07:42:03;45.40;;;26.60;;
2624;SDS011;1322;53.256;10.386;2023-04-15T07:44:29;48.20;;;27.17;;
2624;SDS011;1322;53.256;10.386;2023-04-15T07:46:55;47.40;;;25.93;;
2624;SDS011;1322;53.256;10.386;2023-04-15T07:49:21;44.20;;;25.77;;
2624;SDS011;1322;53.256;10.386;2023-04-15T07:51:47;50.03;;;27.70;;
2624;SDS011;1322;53.256;10.386;2023-04-15T07:54:14;47.27;;;26.40;;
2624;SDS011;1322;53.256;10.386;2023-04-15T07:56:40;54.70;;;27.07;;
2624;SDS011;1322;53.256;10.386;2023-04-15T07:59:06;48.43;;;25.23;;
2624;SDS011;1322;53.256;10.386;2023-04-15T08:01:33;46.07;;;27.07;;
2624;SDS011;1322;53.256;10.386;2023-04-15T08:03:59;51.53;;;27.87;;
2624;SDS011;1322;53.256;10.386;2023-04-15T08:06:24;45.70;;;25.73;;
2624;SDS011;1322;53.256;10.386;2023-04-15T08:08:51;52.07;;;29.87;;
2624;SDS011;1322;53.256;10.386;2023-04-15T08:11:18;46.97;;;27.33;;
2624;SDS011;1322;53.256;10.386;2023-04-15T08:13:45;45.13;;;27.33;;
2624;SDS011;1322;53.256;10.386;2023-04-15T08:18:47;48.03;;;25.00;;
2624;SDS011;1322;53.256;10.386;2023-04-15T08:21:14;48.33;;;26.43;;
2624;SDS011;1322;53.256;10.386;2023-04-15T08:23:42;59.90;;;29.97;;
2624;SDS011;1322;53.256;10.386;2023-04-15T08:26:11;57.47;;;29.73;;
2624;SDS011;1322;53.256;10.386;2023-04-15T08:28:37;44.97;;;24.00;;
2624;SDS011;1322;53.256;10.386;2023-04-15T08:31:04;49.13;;;26.20;;
2624;SDS011;1322;53.256;10.386;2023-04-15T08:33:33;56.07;;;29.00;;
2624;SDS011;1322;53.256;10.386;2023-04-15T08:35:59;48.07;;;28.50;;
2624;SDS011;1322;53.256;10.386;2023-04-15T08:38:25;50.90;;;28.40;;
2624;SDS011;1322;53.256;10.386;2023-04-15T08:40:51;52.80;;;27.50;;
2624;SDS011;1322;53.256;10.386;2023-04-15T08:43:23;50.23;;;29.33;;
2624;SDS011;1322;53.256;10.386;2023-04-15T08:45:57;47.80;;;26.60;;
2624;SDS011;1322;53.256;10.386;2023-04-15T08:48:26;45.80;;;24.10;;
2624;SDS011;1322;53.256;10.386;2023-04-15T08:50:53;51.40;;;25.33;;
2624;SDS011;1322;53.256;10.386;2023-04-15T08:53:22;45.07;;;27.10;;
2624;SDS011;1322;53.256;10.386;2023-04-15T08:55:50;54.00;;;25.90;;
2624;SDS011;1322;53.256;10.386;2023-04-15T08:58:17;48.30;;;27.60;;
2624;SDS011;1322;53.256;10.386;2023-04-15T09:00:43;49.80;;;26.57;;
2624;SDS011;1322;53.256;10.386;2023-04-15T09:03:10;45.73;;;24.77;;
2624;SDS011;1322;53.256;10.386;2023-04-15T09:05:36;46.80;;;25.17;;
2624;SDS011;1322;53.256;10.386;2023-04-15T09:08:02;44.07;;;25.90;;
2624;SDS011;1322;53.256;10.386;2023-04-15T09:10:29;43.53;;;25.53;;
2624;SDS011;1322;53.256;10.386;2023-04-15T09:12:55;46.93;;;25.63;;
2624;SDS011;1322;53.256;10.386;2023-04-15T09:15:25;51.00;;;27.00;;
2624;SDS011;1322;53.256;10.386;2023-04-15T09:17:53;45.57;;;27.27;;
2624;SDS011;1322;53.256;10.386;2023-04-15T09:20:20;47.50;;;26.70;;
2624;SDS011;1322;53.256;10.386;2023-04-15T09:22:47;43.00;;;23.00;;
2624;SDS011;1322;53.256;10.386;2023-04-15T09:27:48;40.90;;;23.03;;
2624;SDS011;1322;53.256;10.386;2023-04-15T09:30:15;49.43;;;26.63;;
2624;SDS011;1322;53.256;10.386;2023-04-15T09:32:51;47.50;;;26.00;;
2624;SDS011;1322;53.256;10.386;2023-04-15T09:35:22;43.30;;;24.47;;
2624;SDS011;1322;53.256;10.386;2023-04-15T09:37:49;42.53;;;25.20;;
2624;SDS011;1322;53.256;10.386;2023-04-15T09:40:36;38.67;;;25.17;;
2624;SDS011;1322;53.256;10.386;2023-04-15T09:43:05;40.73;;;25.57;;
2624;SDS011;1322;53.256;10.386;2023-04-15T09:45:32;42.80;;;24.63;;
2624;SDS011;1322;53.256;10.386;2023-04-15T09:47:59;43.87;;;27.07;;
2624;SDS011;1322;53.256;10.386;2023-04-15T09:50:45;43.20;;;25.00;;
2624;SDS011;1322;53.256;10.386;2023-04-15T09:53:19;47.37;;;25.53;;
2624;SDS011;1322;53.256;10.386;2023-04-15T09:55:53;44.57;;;21.83;;
2624;SDS011;1322;53.256;10.386;2023-04-15T10:00:55;40.00;;;24.43;;
2624;SDS011;1322;53.256;10.386;2023-04-15T10:03:22;46.00;;;25.37;;
2624;SDS011;1322;53.256;10.386;2023-04-15T10:05:53;45.90;;;26.73;;
2624;SDS011;1322;53.256;10.386;2023-04-15T10:08:25;38.40;;;22.57;;
2624;SDS011;1322;53.256;10.386;2023-04-15T10:10:53;45.50;;;23.87;;
2624;SDS011;1322;53.256;10.386;2023-04-15T10:13:20;37.77;;;23.93;;
2624;SDS011;1322;53.256;10.386;2023-04-15T10:15:51;39.77;;;22.83;;
2624;SDS011;1322;53.256;10.386;2023-04-15T10:18:25;42.77;;;22.87;;
2624;SDS011;1322;53.256;10.386;2023-04-15T10:20:53;36.20;;;23.00;;
2624;SDS011;1322;53.256;10.386;2023-04-15T10:23:19;36.17;;;24.00;;
2624;SDS011;1322;53.256;10.386;2023-04-15T10:25:50;42.50;;;25.40;;
2624;SDS011;1322;53.256;10.386;2023-04-15T10:28:18;35.53;;;21.60;;
2624;SDS011;1322;53.256;10.386;2023-04-15T10:30:47;38.80;;;23.37;;
2624;SDS011;1322;53.256;10.386;2023-04-15T10:33:14;35.17;;;20.83;;
2624;SDS011;1322;53.256;10.386;2023-04-15T10:35:44;33.33;;;22.77;;
2624;SDS011;1322;53.256;10.386;2023-04-15T10:38:33;28.17;;;20.37;;
2624;SDS011;1322;53.256;10.386;2023-04-15T10:44:01;34.53;;;21.47;;
2624;SDS011;1322;53.256;10.386;2023-04-15T10:46:37;33.63;;;21.70;;
2624;SDS011;1322;53.256;10.386;2023-04-15T10:51:41;29.70;;;18.80;;
2624;SDS011;1322;53.256;10.386;2023-04-15T10:57:06;34.27;;;21.33;;
2624;SDS011;1322;53.256;10.386;2023-04-15T10:59:38;33.37;;;22.03;;
2624;SDS011;1322;53.256;10.386;2023-04-15T11:05:13;31.20;;;20.17;;
2624;SDS011;1322;53.256;10.386;2023-04-15T11:07:46;28.00;;;19.73;;
2624;SDS011;1322;53.256;10.386;2023-04-15T11:12:38;26.27;;;17.90;;
2624;SDS011;1322;53.256;10.386;2023-04-15T11:17:56;31.00;;;20.07;;
2624;SDS011;1322;53.256;10.386;2023-04-15T11:20:23;28.77;;;19.90;;
2624;SDS011;1322;53.256;10.386;2023-04-15T11:22:50;26.97;;;16.40;;
2624;SDS011;1322;53.256;10.386;2023-04-15T11:25:29;24.13;;;18.90;;
2624;SDS011;1322;53.256;10.386;2023-04-15T11:27:57;30.23;;;19.90;;
2624;SDS011;1322;53.256;10.386;2023-04-15T11:30:25;27.03;;;17.60;;
2624;SDS011;1322;53.256;10.386;2023-04-15T11:32:54;23.30;;;17.97;;
2624;SDS011;1322;53.256;10.386;2023-04-15T11:35:22;21.33;;;16.90;;
2624;SDS011;1322;53.256;10.386;2023-04-15T11:37:48;26.23;;;18.27;;
2624;SDS011;1322;53.256;10.386;2023-04-15T11:40:14;25.37;;;18.33;;
2624;SDS011;1322;53.256;10.386;2023-04-15T11:45:32;24.80;;;19.37;;
2624;SDS011;1322;53.256;10.386;2023-04-15T11:48:08;23.80;;;18.33;;
2624;SDS011;1322;53.256;10.386;2023-04-15T11:50:36;26.50;;;17.83;;
2624;SDS011;1322;53.256;10.386;2023-04-15T11:53:06;23.63;;;15.80;;
2624;SDS011;1322;53.256;10.386;2023-04-15T11:55:45;26.90;;;19.13;;
2624;SDS011;1322;53.256;10.386;2023-04-15T11:58:13;27.20;;;19.27;;
2624;SDS011;1322;53.256;10.386;2023-04-15T12:00:48;23.70;;;17.43;;
2624;SDS011;1322;53.256;10.386;2023-04-15T12:13:58;20.17;;;15.30;;
2624;SDS011;1322;53.256;10.386;2023-04-15T12:16:27;21.40;;;16.10;;
2624;SDS011;1322;53.256;10.386;2023-04-15T12:18:54;26.27;;;18.00;;
2624;SDS011;1322;53.256;10.386;2023-04-15T12:21:23;26.70;;;17.20;;
2624;SDS011;1322;53.256;10.386;2023-04-15T12:23:50;27.13;;;17.57;;
2624;SDS011;1322;53.256;10.386;2023-04-15T12:26:18;23.50;;;17.57;;
2624;SDS011;1322;53.256;10.386;2023-04-15T12:28:58;24.47;;;17.80;;
2624;SDS011;1322;53.256;10.386;2023-04-15T12:31:32;21.33;;;17.20;;
2624;SDS011;1322;53.256;10.386;2023-04-15T12:33:59;19.57;;;17.30;;
2624;SDS011;1322;53.256;10.386;2023-04-15T12:36:26;27.77;;;17.90;;
2624;SDS011;1322;53.256;10.386;2023-04-15T12:38:52;21.40;;;16.67;;
2624;SDS011;1322;53.256;10.386;2023-04-15T12:41:19;25.57;;;17.67;;
2624;SDS011;1322;53.256;10.386;2023-04-15T12:43:45;19.20;;;15.63;;
2624;SDS011;1322;53.256;10.386;2023-04-15T12:46:12;19.57;;;15.57;;
2624;SDS011;1322;53.256;10.386;2023-04-15T12:48:38;23.40;;;15.97;;
2624;SDS011;1322;53.256;10.386;2023-04-15T12:51:04;21.27;;;16.03;;
2624;SDS011;1322;53.256;10.386;2023-04-15T12:53:30;18.53;;;14.37;;
2624;SDS011;1322;53.256;10.386;2023-04-15T12:55:56;24.83;;;16.07;;
2624;SDS011;1322;53.256;10.386;2023-04-15T12:58:21;16.97;;;14.47;;
2624;SDS011;1322;53.256;10.386;2023-04-15T13:00:47;18.97;;;14.63;;
2624;SDS011;1322;53.256;10.386;2023-04-15T13:03:14;19.87;;;15.67;;
2624;SDS011;1322;53.256;10.386;2023-04-15T13:05:40;19.50;;;15.50;;
2624;SDS011;1322;53.256;10.386;2023-04-15T13:08:06;24.13;;;15.20;;
2624;SDS011;1322;53.256;10.386;2023-04-15T13:10:35;16.63;;;14.13;;
2624;SDS011;1322;53.256;10.386;2023-04-15T13:13:01;18.20;;;15.40;;
2624;SDS011;1322;53.256;10.386;2023-04-15T13:15:27;16.93;;;14.37;;
2624;SDS011;1322;53.256;10.386;2023-04-15T13:17:53;18.33;;;14.83;;
2624;SDS011;1322;53.256;10.386;2023-04-15T13:20:19;15.10;;;12.60;;
2624;SDS011;1322;53.256;10.386;2023-04-15T13:22:45;18.00;;;13.73;;
2624;SDS011;1322;53.256;10.386;2023-04-15T13:25:10;16.10;;;13.07;;
2624;SDS011;1322;53.256;10.386;2023-04-15T13:27:36;15.80;;;12.70;;
2624;SDS011;1322;53.256;10.386;2023-04-15T13:30:02;21.40;;;13.27;;
2624;SDS011;1322;53.256;10.386;2023-04-15T13:32:29;15.50;;;12.90;;
2624;SDS011;1322;53.256;10.386;2023-04-15T13:34:55;18.03;;;13.37;;
2624;SDS011;1322;53.256;10.386;2023-04-15T13:37:26;16.27;;;12.03;;
2624;SDS011;1322;53.256;10.386;2023-04-15T13:39:53;19.23;;;14.70;;
2624;SDS011;1322;53.256;10.386;2023-04-15T13:42:20;16.70;;;14.00;;
2624;SDS011;1322;53.256;10.386;2023-04-15T13:44:46;16.13;;;12.73;;
2624;SDS011;1322;53.256;10.386;2023-04-15T13:47:12;18.90;;;13.53;;
2624;SDS011;1322;53.256;10.386;2023-04-15T13:49:42;22.83;;;13.77;;
2624;SDS011;1322;53.256;10.386;2023-04-15T13:52:08;17.93;;;14.37;;
2624;SDS011;1322;53.256;10.386;2023-04-15T13:54:33;18.47;;;13.47;;
2624;SDS011;1322;53.256;10.386;2023-04-15T13:57:02;14.67;;;12.13;;
2624;SDS011;1322;53.256;10.386;2023-04-15T13:59:28;15.80;;;12.97;;
2624;SDS011;1322;53.256;10.386;2023-04-15T14:01:53;15.77;;;13.83;;
2624;SDS011;1322;53.256;10.386;2023-04-15T14:04:19;16.60;;;12.50;;
2624;SDS011;1322;53.256;10.386;2023-04-15T14:06:45;16.80;;;12.37;;
2624;SDS011;1322;53.256;10.386;2023-04-15T14:09:11;16.33;;;13.77;;
2624;SDS011;1322;53.256;10.386;2023-04-15T14:11:37;17.03;;;12.77;;
2624;SDS011;1322;53.256;10.386;2023-04-15T14:14:03;18.63;;;12.93;;
2624;SDS011;1322;53.256;10.386;2023-04-15T14:16:30;15.17;;;12.73;;
2624;SDS011;1322;53.256;10.386;2023-04-15T14:18:57;12.23;;;11.03;;
2624;SDS011;1322;53.256;10.386;2023-04-15T14:21:23;16.07;;;12.60;;
2624;SDS011;1322;53.256;10.386;2023-04-15T14:23:51;17.97;;;11.97;;
2624;SDS011;1322;53.256;10.386;2023-04-15T14:26:17;13.10;;;11.43;;
2624;SDS011;1322;53.256;10.386;2023-04-15T14:28:43;16.30;;;11.47;;
2624;SDS011;1322;53.256;10.386;2023-04-15T14:31:09;12.40;;;10.80;;
2624;SDS011;1322;53.256;10.386;2023-04-15T14:33:35;11.70;;;10.50;;
2624;SDS011;1322;53.256;10.386;2023-04-15T14:36:00;15.33;;;10.83;;
2624;SDS011;1322;53.256;10.386;2023-04-15T14:38:26;13.80;;;10.93;;
2624;SDS011;1322;53.256;10.386;2023-04-15T14:40:52;17.80;;;11.77;;
2624;SDS011;1322;53.256;10.386;2023-04-15T14:43:19;12.00;;;10.70;;
2624;SDS011;1322;53.256;10.386;2023-04-15T14:45:45;11.53;;;10.37;;
2624;SDS011;1322;53.256;10.386;2023-04-15T14:48:10;14.30;;;11.10;;
2624;SDS011;1322;53.256;10.386;2023-04-15T14:50:36;16.27;;;10.93;;
2624;SDS011;1322;53.256;10.386;2023-04-15T14:53:02;16.13;;;10.20;;
2624;SDS011;1322;53.256;10.386;2023-04-15T14:55:28;16.37;;;11.10;;
2624;SDS011;1322;53.256;10.386;2023-04-15T14:57:54;19.87;;;12.07;;
2624;SDS011;1322;53.256;10.386;2023-04-15T15:00:20;14.47;;;11.13;;
2624;SDS011;1322;53.256;10.386;2023-04-15T15:02:45;13.67;;;11.57;;
2624;SDS011;1322;53.256;10.386;2023-04-15T15:05:11;15.93;;;10.67;;
2624;SDS011;1322;53.256;10.386;2023-04-15T15:07:39;13.80;;;11.77;;
2624;SDS011;1322;53.256;10.386;2023-04-15T15:10:05;13.17;;;11.23;;
2624;SDS011;1322;53.256;10.386;2023-04-15T15:12:31;11.27;;;9.90;;
2624;SDS011;1322;53.256;10.386;2023-04-15T15:15:01;13.30;;;11.30;;
2624;SDS011;1322;53.256;10.386;2023-04-15T15:17:28;12.37;;;10.57;;